AleStat.com

Change in ranking / Ranking

On in

show additional options hide additional options
Show chart Hide chart
Website Local position 2020-09-16 Global position 2020-09-16 AleStat Rank
stackoverrun.com  Show on alexa stackoverrun.com  Redirect to stackoverrun.com 61 / +929 990 of day 2020-09-15 1 820 / +32256 34 076 of day 2020-09-15 207.06
docker.com  Show on alexa docker.com  Redirect to docker.com 231 / +9901 10 132 of day 2020-09-15 1 636 / +29330 30 966 of day 2020-09-15 205.00
myspace.com  Show on alexa myspace.com  Redirect to myspace.com Welcome to the new Myspace! 612 / +5819 6 431 of day 2020-09-15 2 057 / +29917 31 974 of day 2020-09-15 203.58
refinery29.com  Show on alexa refinery29.com  Redirect to refinery29.com 2013 Fashion, Winter Style and Beauty Guides 566 / +7068 7 634 of day 2020-09-15 1 909 / +38581 40 490 of day 2020-09-15 202.30
nbastreams.xyz  Show on alexa nbastreams.xyz  Redirect to nbastreams.xyz 528 / +12627 13 155 of day 2020-09-15 3 102 / +34119 37 221 of day 2020-09-15 199.35
ionicframework.com  Show on alexa ionicframework.com  Redirect to ionicframework.com 788 / +5680 6 468 of day 2020-09-15 2 785 / +29518 32 303 of day 2020-09-15 199.08
influencermarketinghub.com  Show on alexa influencermarketinghub.com  Redirect to influencermarketinghub.com 699 / +6997 7 696 of day 2020-09-15 2 417 / +38537 40 954 of day 2020-09-15 198.79
pagesix.com  Show on alexa pagesix.com  Redirect to pagesix.com 515 / +13395 13 910 of day 2020-09-15 3 021 / +35687 38 708 of day 2020-09-15 198.78
unieuro.it  Show on alexa unieuro.it  Redirect to unieuro.it 32 / +322 354 of day 2020-09-15 3 100 / +35396 38 496 of day 2020-09-15 198.54
mailgun.com  Show on alexa mailgun.com  Redirect to mailgun.com Mailgun: Programmable Mail Servers 295 / +2283 2 578 of day 2020-09-15 3 101 / +35611 38 712 of day 2020-09-15 198.33
managewp.com  Show on alexa managewp.com  Redirect to managewp.com Manage WordPress Sites from One Dashboard – ManageWP.com 882 / +6452 7 334 of day 2020-09-15 3 159 / +35606 38 765 of day 2020-09-15 197.96
afr.com  Show on alexa afr.com  Redirect to afr.com Financial Review - business, finance and investment news | afr.com 27 / +218 245 of day 2020-09-15 3 726 / +32593 36 319 of day 2020-09-15 195.82
indiatvnews.com  Show on alexa indiatvnews.com  Redirect to indiatvnews.com Indiatvnews.com - Latest News, India News,Breaking News,Business, Bollywood, Cricket, Lifestyle, Masala News, Politics, Sports, Health and Videos 259 / +1954 2 213 of day 2020-09-15 3 671 / +34304 37 975 of day 2020-09-15 195.69
git-scm.com  Show on alexa git-scm.com  Redirect to git-scm.com Git 997 / +6295 7 292 of day 2020-09-15 3 643 / +34887 38 530 of day 2020-09-15 195.47
gigya.com  Show on alexa gigya.com  Redirect to gigya.com Social Infrastructure | Gigya 937 / +5597 6 534 of day 2020-09-15 3 430 / +29323 32 753 of day 2020-09-15 195.35
themoviedb.org  Show on alexa themoviedb.org  Redirect to themoviedb.org The Movie Database 815 / +6981 7 796 of day 2020-09-15 2 920 / +38762 41 682 of day 2020-09-15 194.78
macworld.co.uk  Show on alexa macworld.co.uk  Redirect to macworld.co.uk Macworld UK 25 / +377 402 of day 2020-09-15 2 839 / +27202 30 041 of day 2020-09-15 194.74
invideo.io  Show on alexa invideo.io  Redirect to invideo.io 161 / +1479 1 640 of day 2020-09-15 2 157 / +25297 27 454 of day 2020-09-15 193.10
zbwg.cc  Show on alexa zbwg.cc  Redirect to zbwg.cc 785 / +11045 11 830 of day 2020-09-15 4 156 / +30499 34 655 of day 2020-09-15 192.55
122.gov.cn  Show on alexa 122.gov.cn  Redirect to 122.gov.cn 806 / +10707 11 513 of day 2020-09-15 4 239 / +29961 34 200 of day 2020-09-15 191.65
excelsior.com.mx  Show on alexa excelsior.com.mx  Redirect to excelsior.com.mx 20 / +200 220 of day 2020-09-15 3 651 / +27365 31 016 of day 2020-09-15 191.02
braze.com  Show on alexa braze.com  Redirect to braze.com 868 / +12254 13 122 of day 2020-09-15 4 549 / +32582 37 131 of day 2020-09-15 190.91
epey.com  Show on alexa epey.com  Redirect to epey.com 56 / +294 350 of day 2020-09-15 4 501 / +30248 34 749 of day 2020-09-15 190.44
authorize.net  Show on alexa authorize.net  Redirect to authorize.net Payment Gateway to Accept Online Payments - Authorize.Net 491 / +4743 5 234 of day 2020-09-15 1 600 / +23500 25 100 of day 2020-09-15 189.53
bittrex.com  Show on alexa bittrex.com  Redirect to bittrex.com 727 / +9469 10 196 of day 2020-09-15 3 904 / +27223 31 127 of day 2020-09-15 189.47
ezinearticles.com  Show on alexa ezinearticles.com  Redirect to ezinearticles.com EzineArticles Submission - Submit Your Best Quality Original Articles For Massive Exposure, Ezine Publishers Get 25 Free Article Reprints 240 / +1487 1 727 of day 2020-09-15 3 302 / +25718 29 020 of day 2020-09-15 188.93
pi-news.net  Show on alexa pi-news.net  Redirect to pi-news.net Politically Incorrect 78 / +608 686 of day 2020-09-15 4 281 / +36896 41 177 of day 2020-09-15 188.82
uspto.gov  Show on alexa uspto.gov  Redirect to uspto.gov United States Patent and Trademark Office 340 / +4606 4 946 of day 2020-09-15 999 / +22630 23 629 of day 2020-09-15 188.61
latestsocial.com  Show on alexa latestsocial.com  Redirect to latestsocial.com 880 / +13769 14 649 of day 2020-09-15 4 609 / +35595 40 204 of day 2020-09-15 188.51
personalcapital.com  Show on alexa personalcapital.com  Redirect to personalcapital.com Personal Capital - Personal Capital | Asset & Money Management - Financial Planning 1 284 / +5502 6 786 of day 2020-09-15 4 726 / +29418 34 144 of day 2020-09-15 188.48
sproutsocial.com  Show on alexa sproutsocial.com  Redirect to sproutsocial.com Social Media Management, Social CRM for Business | Sprout Social 322 / +8283 8 605 of day 2020-09-15 926 / +45645 46 571 of day 2020-09-15 188.45
breezy.hr  Show on alexa breezy.hr  Redirect to breezy.hr 1 219 / +5357 6 576 of day 2020-09-15 4 536 / +28492 33 028 of day 2020-09-15 188.38
notepad-plus-plus.org  Show on alexa notepad-plus-plus.org  Redirect to notepad-plus-plus.org Notepad++ Home 292 / +2123 2 415 of day 2020-09-15 4 210 / +37612 41 822 of day 2020-09-15 188.03
up-4ever.org  Show on alexa up-4ever.org  Redirect to up-4ever.org 24 / +147 171 of day 2020-09-15 4 390 / +37033 41 423 of day 2020-09-15 187.85
beebom.com  Show on alexa beebom.com  Redirect to beebom.com Beebom - Connecting People with photos 320 / +1672 1 992 of day 2020-09-15 4 700 / +28665 33 365 of day 2020-09-15 187.75
genk.vn  Show on alexa genk.vn  Redirect to genk.vn Trang thông tin dành cho tín đồ công nghệ - GenK.vn 21 / +182 203 of day 2020-09-15 5 132 / +32390 37 522 of day 2020-09-15 187.46
appcast.io  Show on alexa appcast.io  Redirect to appcast.io 1 206 / +5224 6 430 of day 2020-09-15 4 487 / +27485 31 972 of day 2020-09-15 187.04
sweetwater.com  Show on alexa sweetwater.com  Redirect to sweetwater.com Sweetwater.com 927 / +4859 5 786 of day 2020-09-15 3 335 / +24964 28 299 of day 2020-09-15 186.69
poste.dz  Show on alexa poste.dz  Redirect to poste.dz 11 / +27 38 of day 2020-09-15 5 332 / +31145 36 477 of day 2020-09-15 186.22
questdiagnostics.com  Show on alexa questdiagnostics.com  Redirect to questdiagnostics.com Quest Diagnostics : Homepage 1 344 / +5303 6 647 of day 2020-09-15 4 984 / +28464 33 448 of day 2020-09-15 186.00
consensu.org  Show on alexa consensu.org  Redirect to consensu.org 1 075 / +11292 12 367 of day 2020-09-15 5 354 / +30404 35 758 of day 2020-09-15 185.80
ntt.com  Show on alexa ntt.com  Redirect to ntt.com 149 / +755 904 of day 2020-09-15 3 423 / +24779 28 202 of day 2020-09-15 185.75
dl-x.com  Show on alexa dl-x.com  Redirect to dl-x.com 228 / +841 1 069 of day 2020-09-15 5 191 / +28442 33 633 of day 2020-09-15 184.89
ebanking-services.com  Show on alexa ebanking-services.com  Redirect to ebanking-services.com 1 113 / +4893 6 006 of day 2020-09-15 4 074 / +25505 29 579 of day 2020-09-15 184.75
net-entreprises.fr  Show on alexa net-entreprises.fr  Redirect to net-entreprises.fr net-entreprises.fr, le site officiel des déclarations sociales 92 / +498 590 of day 2020-09-15 5 572 / +30552 36 124 of day 2020-09-15 184.65
instant-gaming.com  Show on alexa instant-gaming.com  Redirect to instant-gaming.com Instant Gaming: kupić kluczy CD do komputera najtańsza w internecie, i otrzymywać je tam 24/7! 74 / +403 477 of day 2020-09-15 4 351 / +25932 30 283 of day 2020-09-15 184.50
mzol7lbm.com  Show on alexa mzol7lbm.com  Redirect to mzol7lbm.com 1 116 / +11026 12 142 of day 2020-09-15 5 564 / +29737 35 301 of day 2020-09-15 184.22
bet-1x18533.com  Show on alexa bet-1x18533.com  Redirect to bet-1x18533.com 922 / -628 294 of day 2020-09-15 4 812 / +26818 31 630 of day 2020-09-15 184.18
axshare.com  Show on alexa axshare.com  Redirect to axshare.com 767 / +8619 9 386 of day 2020-09-15 4 078 / +25152 29 230 of day 2020-09-15 183.81
netlify.com  Show on alexa netlify.com  Redirect to netlify.com 976 / +14487 15 463 of day 2020-09-15 4 995 / +37022 42 017 of day 2020-09-15 183.76
upv.es  Show on alexa upv.es  Redirect to upv.es 63 / +387 450 of day 2020-09-15 5 469 / +34967 40 436 of day 2020-09-15 183.70
maildealer.jp  Show on alexa maildealer.jp  Redirect to maildealer.jp [LE[ǗVFANo.1@[fB[[ 244 / +897 1 141 of day 2020-09-15 5 676 / +33843 39 519 of day 2020-09-15 183.48
mci.gov.sa  Show on alexa mci.gov.sa  Redirect to mci.gov.sa وزارة التجارة والصناعة 35 / +115 150 of day 2020-09-15 5 720 / +29640 35 360 of day 2020-09-15 183.29
esunbank.com.tw  Show on alexa esunbank.com.tw  Redirect to esunbank.com.tw 56 / +195 251 of day 2020-09-15 5 080 / +26955 32 035 of day 2020-09-15 183.12
platzi.com  Show on alexa platzi.com  Redirect to platzi.com Platzi Online education that inspires commitment and community 10 / +79 89 of day 2020-09-15 4 883 / +26294 31 177 of day 2020-09-15 182.77
fu-berlin.de  Show on alexa fu-berlin.de  Redirect to fu-berlin.de Freie Universität Berlin: Startseite 111 / +521 632 of day 2020-09-15 5 919 / +33397 39 316 of day 2020-09-15 182.31
amara.com  Show on alexa amara.com  Redirect to amara.com 502 Bad Gateway 86 / +401 487 of day 2020-09-15 6 009 / +32796 38 805 of day 2020-09-15 182.10
totheglory.im  Show on alexa totheglory.im  Redirect to totheglory.im 452 / +2098 2 550 of day 2020-09-15 5 830 / +28744 34 574 of day 2020-09-15 181.89
canna.to  Show on alexa canna.to  Redirect to canna.to CannaPower! 90 / +407 497 of day 2020-09-15 4 778 / +25450 30 228 of day 2020-09-15 181.33
cpalead.com  Show on alexa cpalead.com  Redirect to cpalead.com 298 / +2267 2 565 of day 2020-09-15 4 334 / +40186 44 520 of day 2020-09-15 181.02
poloniex.com  Show on alexa poloniex.com  Redirect to poloniex.com 1 078 / +9418 10 496 of day 2020-09-15 5 360 / +26512 31 872 of day 2020-09-15 180.90
docero.com.br  Show on alexa docero.com.br  Redirect to docero.com.br 656 / +7823 8 479 of day 2020-09-15 3 652 / +23492 27 144 of day 2020-09-15 180.66
markethive.com  Show on alexa markethive.com  Redirect to markethive.com 969 / +4547 5 516 of day 2020-09-15 3 537 / +23258 26 795 of day 2020-09-15 180.35
uniroma1.it  Show on alexa uniroma1.it  Redirect to uniroma1.it 57 / +216 273 of day 2020-09-15 5 282 / +25763 31 045 of day 2020-09-15 179.70
51cto.com  Show on alexa 51cto.com  Redirect to 51cto.com 51CTO.COM - 技术成就梦想 - 中国领先的IT技术网站 398 / +2047 2 445 of day 2020-09-15 4 712 / +24688 29 400 of day 2020-09-15 179.65
khan.co.kr  Show on alexa khan.co.kr  Redirect to khan.co.kr 경향신문 30 / +158 188 of day 2020-09-15 2 636 / +22071 24 707 of day 2020-09-15 179.59
cafemom.com  Show on alexa cafemom.com  Redirect to cafemom.com CafeMom - Moms Connecting About Pregnancy, Babies, Home, Health, and More 1 721 / +5724 7 445 of day 2020-09-15 6 435 / +32836 39 271 of day 2020-09-15 179.51
upworthy.com  Show on alexa upworthy.com  Redirect to upworthy.com Upworthy: Things that matter. Pass 'em on. 1 750 / +5571 7 321 of day 2020-09-15 6 538 / +32128 38 666 of day 2020-09-15 179.21
vogue.com  Show on alexa vogue.com  Redirect to vogue.com Mode, Trends, Beauty und People - VOGUE 970 / +4466 5 436 of day 2020-09-15 3 540 / +22845 26 385 of day 2020-09-15 178.86
business.gov.au  Show on alexa business.gov.au  Redirect to business.gov.au business.gov.au 26 / +151 177 of day 2020-09-15 3 620 / +22861 26 481 of day 2020-09-15 178.59
nyahentai.com  Show on alexa nyahentai.com  Redirect to nyahentai.com 1 123 / +15030 16 153 of day 2020-09-15 5 588 / +37625 43 213 of day 2020-09-15 178.50
ard.de  Show on alexa ard.de  Redirect to ard.de ARD.de - Homepage 107 / +415 522 of day 2020-09-15 5 773 / +26257 32 030 of day 2020-09-15 178.40
codebeautify.org  Show on alexa codebeautify.org  Redirect to codebeautify.org 1 443 / +11741 13 184 of day 2020-09-15 6 747 / +30532 37 279 of day 2020-09-15 178.07
support.wix.com  Show on alexa support.wix.com  Redirect to support.wix.com Support Homepage 622 / +4251 4 873 of day 2020-09-15 2 094 / +21214 23 308 of day 2020-09-15 178.06
about.com  Show on alexa about.com  Redirect to about.com About.com: Do more. 1 792 / +5222 7 014 of day 2020-09-15 6 719 / +29654 36 373 of day 2020-09-15 177.87
mrskin.com  Show on alexa mrskin.com  Redirect to mrskin.com Nude Celebs in Pics, Clips, and HD Movies | Mr. Skin 1 164 / +4538 5 702 of day 2020-09-15 4 307 / +23481 27 788 of day 2020-09-15 177.80
tjpi.jus.br  Show on alexa tjpi.jus.br  Redirect to tjpi.jus.br 1 396 / +13470 14 866 of day 2020-09-15 6 590 / +34101 40 691 of day 2020-09-15 177.55
gamovideo.com  Show on alexa gamovideo.com  Redirect to gamovideo.com 1 451 / +11262 12 713 of day 2020-09-15 6 776 / +29524 36 300 of day 2020-09-15 177.49
priberam.org  Show on alexa priberam.org  Redirect to priberam.org 348 / +6594 6 942 of day 2020-09-15 2 201 / +21163 23 364 of day 2020-09-15 177.42
ec.com.pk  Show on alexa ec.com.pk  Redirect to ec.com.pk 1 465 / +12641 14 106 of day 2020-09-15 6 840 / +32325 39 165 of day 2020-09-15 177.35
securekeyconcierge.com  Show on alexa securekeyconcierge.com  Redirect to securekeyconcierge.com SecureKey Concierge 47 / +192 239 of day 2020-09-15 4 921 / +24172 29 093 of day 2020-09-15 177.25
creativessigns.in  Show on alexa creativessigns.in  Redirect to creativessigns.in 1 479 / +11683 13 162 of day 2020-09-15 6 897 / +30340 37 237 of day 2020-09-15 177.18
opendoor.com  Show on alexa opendoor.com  Redirect to opendoor.com Open Door Networks - Macintosh Internet Security, iPhone and iPad apps 1 048 / +4395 5 443 of day 2020-09-15 3 806 / +22594 26 400 of day 2020-09-15 176.84
um.es  Show on alexa um.es  Redirect to um.es Universidad de Murcia 87 / +311 398 of day 2020-09-15 6 912 / +29385 36 297 of day 2020-09-15 176.67
katekyo-nagano.com  Show on alexa katekyo-nagano.com  Redirect to katekyo-nagano.com 1 273 / +14617 15 890 of day 2020-09-15 6 140 / +36680 42 820 of day 2020-09-15 176.66
getdrip.com  Show on alexa getdrip.com  Redirect to getdrip.com 1 089 / +7475 8 564 of day 2020-09-15 3 967 / +42411 46 378 of day 2020-09-15 176.60
hessen.de  Show on alexa hessen.de  Redirect to hessen.de 1 429 / +13633 15 062 of day 2020-09-15 6 693 / +34392 41 085 of day 2020-09-15 176.58
direct-energie.com  Show on alexa direct-energie.com  Redirect to direct-energie.com Gaz électricité : Direct Energie, économiser énergie - fournisseur energie gaz et électricité 115 / +455 570 of day 2020-09-15 6 949 / +29001 35 950 of day 2020-09-15 176.21
popjav.tv  Show on alexa popjav.tv  Redirect to popjav.tv 283 / +886 1 169 of day 2020-09-15 6 639 / +34983 41 622 of day 2020-09-15 176.17
mlbshop.com  Show on alexa mlbshop.com  Redirect to mlbshop.com 1 544 / +12015 13 559 of day 2020-09-15 7 108 / +30946 38 054 of day 2020-09-15 176.09
yenicaggazetesi.com.tr  Show on alexa yenicaggazetesi.com.tr  Redirect to yenicaggazetesi.com.tr 79 / +259 338 of day 2020-09-15 6 556 / +27068 33 624 of day 2020-09-15 176.00
epizy.com  Show on alexa epizy.com  Redirect to epizy.com 567 / +7022 7 589 of day 2020-09-15 3 256 / +21775 25 031 of day 2020-09-15 175.89
mabangerp.com  Show on alexa mabangerp.com  Redirect to mabangerp.com 545 / +6956 7 501 of day 2020-09-15 3 162 / +21629 24 791 of day 2020-09-15 175.66
adac.de  Show on alexa adac.de  Redirect to adac.de ADAC - Ihr Partner in allen Fragen rund um die Mobilität. (Allgemeiner Deutscher Automobil-Club) 133 / +516 649 of day 2020-09-15 7 007 / +33470 40 477 of day 2020-09-15 175.58
codingnepalweb.com  Show on alexa codingnepalweb.com  Redirect to codingnepalweb.com 799 / +163971 164 770 of day 2020-09-15 4 205 / +266007 270 212 of day 2020-09-15 175.45
0101.co.jp  Show on alexa 0101.co.jp  Redirect to 0101.co.jp 279 / +898 1 177 of day 2020-09-15 6 486 / +36091 42 577 of day 2020-09-15 175.43
rollercoin.com  Show on alexa rollercoin.com  Redirect to rollercoin.com 131 / +5880 6 011 of day 2020-09-15 1 080 / +19868 20 948 of day 2020-09-15 175.36
uff.br  Show on alexa uff.br  Redirect to uff.br 92 / +302 394 of day 2020-09-15 6 991 / +33968 40 959 of day 2020-09-15 175.19
hamusoku.com  Show on alexa hamusoku.com  Redirect to hamusoku.com ハムスター速報 160 / +673 833 of day 2020-09-15 3 672 / +22016 25 688 of day 2020-09-15 175.19
paygent.co.jp  Show on alexa paygent.co.jp  Redirect to paygent.co.jp 1 583 / +11444 13 027 of day 2020-09-15 7 274 / +29715 36 989 of day 2020-09-15 174.88
Ważne: nasze strony wykorzystują pliki cookies.

Bez tych plików serwis nie będzie działał poprawnie. W każdej chwili, w programie służącym do obsługi internetu, można zmienić ustawienia dotyczące cookies. Korzystanie z naszego serwisu bez zmiany ustawień oznacza, że będą one zapisane w pamięci urządzenia. Więcej informacji w Polityce prywatności.

Zapoznałem się z informacją